createdAt,value
2022-11-21T00:01:16.283Z,5.23
2022-11-21T00:03:46.415Z,5.08
2022-11-21T00:06:14.089Z,5.02
2022-11-21T00:08:42.221Z,5.10
2022-11-21T00:11:10.172Z,5.10
2022-11-21T00:13:38.310Z,5.17
2022-11-21T00:16:07.287Z,5.14
2022-11-21T00:18:35.824Z,5.11
2022-11-21T00:21:09.673Z,5.14
2022-11-21T00:23:37.622Z,5.17
2022-11-21T00:26:07.134Z,5.24
2022-11-21T00:28:35.183Z,5.22
2022-11-21T00:31:03.164Z,5.20
2022-11-21T00:33:32.281Z,5.18
2022-11-21T00:36:00.015Z,5.29
2022-11-21T00:38:29.769Z,5.35
2022-11-21T00:40:57.426Z,5.35
2022-11-21T00:43:25.116Z,5.26
2022-11-21T00:45:52.800Z,5.20
2022-11-21T00:48:20.547Z,5.22
2022-11-21T00:50:50.921Z,5.27
2022-11-21T00:53:18.659Z,5.33
2022-11-21T00:55:47.674Z,5.28
2022-11-21T00:58:15.390Z,5.33
2022-11-21T01:00:43.164Z,5.39
2022-11-21T01:03:10.949Z,5.45
2022-11-21T01:05:38.600Z,5.43
2022-11-21T01:08:06.494Z,5.42
2022-11-21T01:10:35.164Z,5.35
2022-11-21T01:13:05.272Z,5.31
2022-11-21T01:15:32.960Z,5.33
2022-11-21T01:18:00.654Z,5.28
2022-11-21T01:20:28.330Z,5.28
2022-11-21T01:22:56.075Z,5.03
2022-11-21T01:25:23.735Z,5.05
2022-11-21T01:27:51.469Z,5.09
2022-11-21T01:30:20.624Z,5.10
2022-11-21T01:32:49.604Z,5.11
2022-11-21T01:35:17.292Z,5.12
2022-11-21T01:37:47.824Z,5.10
2022-11-21T01:40:15.966Z,5.10
2022-11-21T01:43:12.602Z,5.08
2022-11-21T01:45:57.776Z,5.07
2022-11-21T01:48:30.938Z,5.11
2022-11-21T01:51:03.303Z,5.18
2022-11-21T01:53:31.055Z,5.22
2022-11-21T01:55:58.815Z,5.29
2022-11-21T01:58:27.017Z,5.32
2022-11-21T02:00:56.218Z,5.32
2022-11-21T02:03:28.691Z,5.36
2022-11-21T02:05:57.092Z,5.36
2022-11-21T02:08:27.463Z,5.32
2022-11-21T02:11:05.840Z,5.30
2022-11-21T02:13:33.617Z,5.36
2022-11-21T02:16:03.464Z,5.25
2022-11-21T02:18:31.135Z,5.18
2022-11-21T02:21:05.851Z,5.11
2022-11-21T02:23:41.147Z,5.15
2022-11-21T02:26:11.247Z,5.16
2022-11-21T02:28:39.034Z,5.10
2022-11-21T02:31:06.697Z,5.11
2022-11-21T02:33:35.217Z,5.15
2022-11-21T02:36:04.183Z,5.20
2022-11-21T02:38:34.462Z,5.20
2022-11-21T02:41:08.025Z,5.23
2022-11-21T02:43:43.187Z,5.24
2022-11-21T02:46:10.856Z,5.22
2022-11-21T02:48:39.112Z,5.16
2022-11-21T02:51:06.782Z,5.03
2022-11-21T02:53:34.443Z,5.01
2022-11-21T02:56:02.186Z,4.91
2022-11-21T02:58:30.084Z,5.00
2022-11-21T03:01:01.323Z,5.10
2022-11-21T03:03:29.061Z,5.12
2022-11-21T03:05:57.730Z,5.06
2022-11-21T03:08:25.424Z,5.01
2022-11-21T03:10:53.067Z,5.00
2022-11-21T03:13:20.769Z,5.09
2022-11-21T03:15:48.425Z,5.08
2022-11-21T03:18:17.546Z,5.05
2022-11-21T03:20:45.197Z,5.06
2022-11-21T03:23:12.932Z,5.06
2022-11-21T03:25:40.691Z,5.06
2022-11-21T03:28:08.383Z,5.02
2022-11-21T03:30:36.108Z,5.03
2022-11-21T03:33:03.806Z,5.09
2022-11-21T03:35:32.888Z,5.07
2022-11-21T03:38:00.584Z,5.01
2022-11-21T03:40:28.304Z,4.96
2022-11-21T03:42:55.976Z,5.03
2022-11-21T03:45:23.650Z,5.06
2022-11-21T03:47:51.353Z,5.09
2022-11-21T03:50:20.958Z,5.15
2022-11-21T03:52:52.613Z,5.18
2022-11-21T03:55:20.620Z,5.20
2022-11-21T03:57:48.413Z,5.23
2022-11-21T04:00:17.511Z,5.24
2022-11-21T04:02:45.210Z,5.25
2022-11-21T04:05:12.888Z,5.25
2022-11-21T04:07:40.608Z,5.25
2022-11-21T04:10:10.787Z,5.29
2022-11-21T04:12:38.566Z,5.31
2022-11-21T04:15:13.192Z,5.32
2022-11-21T04:17:41.490Z,5.33
2022-11-21T04:20:10.169Z,5.36
2022-11-21T04:22:37.857Z,5.37
2022-11-21T04:25:06.268Z,5.36
2022-11-21T04:27:35.369Z,5.34
2022-11-21T04:30:03.081Z,5.33
2022-11-21T04:32:30.726Z,5.34
2022-11-21T04:34:58.378Z,5.35
2022-11-21T04:37:26.103Z,5.37
2022-11-21T04:39:53.790Z,5.34
2022-11-21T04:42:21.533Z,5.39
2022-11-21T04:44:50.620Z,5.40
2022-11-21T04:47:18.391Z,5.42
2022-11-21T04:52:26.989Z,5.42
2022-11-21T04:54:54.658Z,5.38
2022-11-21T04:57:22.354Z,5.38
2022-11-21T04:59:50.100Z,5.38
2022-11-21T05:02:17.828Z,5.39
2022-11-21T05:04:45.620Z,5.36
2022-11-21T05:07:16.462Z,5.36
2022-11-21T05:09:45.563Z,5.37
2022-11-21T05:12:30.884Z,5.42
2022-11-21T05:15:01.469Z,5.40
2022-11-21T05:17:29.845Z,5.38
2022-11-21T05:19:57.530Z,5.27
2022-11-21T05:22:25.254Z,5.29
2022-11-21T05:24:54.360Z,5.27
2022-11-21T05:27:22.063Z,5.29
2022-11-21T05:29:49.718Z,5.20
2022-11-21T05:32:17.447Z,5.18
2022-11-21T05:34:45.106Z,5.11
2022-11-21T05:37:12.766Z,5.13
2022-11-21T05:39:40.431Z,5.23
2022-11-21T05:42:09.459Z,5.29
2022-11-21T05:44:36.072Z,5.34
2022-11-21T05:47:03.703Z,5.37
2022-11-21T05:49:31.382Z,5.29
2022-11-21T05:51:59.045Z,5.28
2022-11-21T05:54:28.189Z,5.32
2022-11-21T05:56:56.064Z,5.32
2022-11-21T05:59:25.044Z,5.37
2022-11-21T06:02:10.086Z,5.40
2022-11-21T06:04:37.790Z,5.42
2022-11-21T06:07:06.158Z,5.44
2022-11-21T06:09:33.936Z,5.40
2022-11-21T06:12:01.553Z,5.40
2022-11-21T06:14:30.777Z,5.33
2022-11-21T06:16:58.498Z,5.35
2022-11-21T06:19:26.126Z,5.35
2022-11-21T06:21:53.767Z,5.37
2022-11-21T06:24:22.440Z,5.38
2022-11-21T06:26:50.197Z,5.36
2022-11-21T06:29:17.863Z,5.39
2022-11-21T06:31:46.849Z,5.41
2022-11-21T06:34:14.881Z,5.42
2022-11-21T06:36:44.619Z,5.45
2022-11-21T06:39:12.330Z,5.48
2022-11-21T06:41:40.024Z,5.48
2022-11-21T06:44:07.810Z,5.50
2022-11-21T06:46:35.503Z,5.48
2022-11-21T06:49:04.776Z,5.48
2022-11-21T06:51:32.446Z,5.50
2022-11-21T06:54:00.736Z,5.53
2022-11-21T06:56:30.483Z,5.54
2022-11-21T06:58:58.645Z,5.55
2022-11-21T07:01:26.778Z,5.55
2022-11-21T07:03:57.829Z,5.56
2022-11-21T07:06:27.260Z,5.55
2022-11-21T07:09:25.542Z,5.55
2022-11-21T07:11:43.575Z,5.58
2022-11-21T07:14:10.284Z,5.61
2022-11-21T07:16:38.284Z,5.61
2022-11-21T07:19:06.466Z,5.64
2022-11-21T07:21:35.547Z,5.66
2022-11-21T07:24:03.312Z,5.70
2022-11-21T07:26:31.079Z,5.71
2022-11-21T07:28:59.800Z,5.74
2022-11-21T07:31:27.629Z,5.77
2022-11-21T07:33:55.268Z,5.80
2022-11-21T07:36:23.066Z,5.82
2022-11-21T07:38:52.129Z,5.84
2022-11-21T07:41:19.836Z,5.86
2022-11-21T07:43:47.551Z,5.91
2022-11-21T07:46:15.258Z,5.94
2022-11-21T07:48:42.941Z,5.97
2022-11-21T07:51:11.099Z,5.99
2022-11-21T07:53:38.826Z,5.97
2022-11-21T07:56:09.512Z,6.00
2022-11-21T07:58:37.651Z,6.02
2022-11-21T08:01:06.414Z,6.02
2022-11-21T08:03:34.579Z,6.02
2022-11-21T08:06:03.783Z,6.01
2022-11-21T08:08:31.804Z,5.95
2022-11-21T08:10:59.471Z,5.98
2022-11-21T08:13:30.156Z,6.00
2022-11-21T08:15:57.884Z,6.00
2022-11-21T08:18:26.336Z,6.06
2022-11-21T08:20:54.004Z,6.13
2022-11-21T08:23:21.727Z,6.15
2022-11-21T08:25:51.451Z,6.19
2022-11-21T08:28:19.123Z,6.20
2022-11-21T08:30:48.265Z,6.21
2022-11-21T08:33:16.661Z,6.27
2022-11-21T08:35:44.357Z,6.24
2022-11-21T08:38:11.995Z,6.26
2022-11-21T08:40:41.288Z,6.26
2022-11-21T08:43:10.491Z,6.27
2022-11-21T08:45:39.260Z,6.28
2022-11-21T08:48:12.463Z,6.31
2022-11-21T08:50:40.534Z,6.34
2022-11-21T08:53:08.264Z,6.36
2022-11-21T08:55:36.000Z,6.38
2022-11-21T08:58:03.736Z,6.39
2022-11-21T09:00:31.427Z,6.40
2022-11-21T09:02:59.057Z,6.42
2022-11-21T09:05:28.081Z,6.42
2022-11-21T09:07:58.979Z,6.45
2022-11-21T09:10:27.233Z,6.50
2022-11-21T09:12:54.975Z,6.51
2022-11-21T09:15:40.169Z,6.53
2022-11-21T09:18:08.208Z,6.57
2022-11-21T09:20:40.820Z,6.61
2022-11-21T09:23:09.271Z,6.61
2022-11-21T09:25:36.947Z,6.63
2022-11-21T09:28:06.570Z,6.67
2022-11-21T09:30:34.501Z,6.70
2022-11-21T09:33:02.809Z,6.73
2022-11-21T09:35:30.850Z,6.74
2022-11-21T09:38:00.093Z,6.77
2022-11-21T09:40:30.169Z,6.78
2022-11-21T09:43:27.369Z,6.75
2022-11-21T09:46:02.526Z,6.80
2022-11-21T09:48:35.205Z,6.86
2022-11-21T09:51:07.001Z,6.91
2022-11-21T09:53:40.649Z,6.95
2022-11-21T09:56:14.103Z,6.99
2022-11-21T09:58:44.935Z,7.06
2022-11-21T10:01:13.681Z,7.16
2022-11-21T10:03:43.956Z,7.27
2022-11-21T10:06:19.755Z,7.32
2022-11-21T10:08:58.172Z,7.39
2022-11-21T10:12:02.679Z,7.43
2022-11-21T10:14:49.006Z,7.51
2022-11-21T10:17:27.497Z,7.62
2022-11-21T10:20:17.543Z,7.66
2022-11-21T10:23:11.226Z,7.68
2022-11-21T10:25:44.550Z,7.75
2022-11-21T10:28:18.486Z,7.80
2022-11-21T10:30:48.150Z,7.83
2022-11-21T10:33:24.680Z,7.80
2022-11-21T10:35:54.457Z,7.79
2022-11-21T10:38:24.581Z,7.76
2022-11-21T10:41:02.058Z,7.75
2022-11-21T10:43:53.528Z,7.75
2022-11-21T10:46:21.327Z,7.75
2022-11-21T10:48:57.083Z,7.73
2022-11-21T10:51:37.868Z,7.73
2022-11-21T10:54:25.628Z,7.75
2022-11-21T10:56:57.711Z,7.79
2022-11-21T10:59:31.222Z,7.82
2022-11-21T11:02:01.155Z,7.85
2022-11-21T11:04:35.369Z,7.89
2022-11-21T11:07:22.894Z,7.94
2022-11-21T11:09:52.334Z,7.97
2022-11-21T11:12:45.577Z,8.02
2022-11-21T11:15:20.303Z,8.05
2022-11-21T11:17:52.969Z,8.07
2022-11-21T11:20:34.080Z,8.11
2022-11-21T11:23:15.990Z,8.17
2022-11-21T11:25:48.091Z,8.19
2022-11-21T11:28:19.240Z,8.23
2022-11-21T11:30:48.222Z,8.27
2022-11-21T11:33:33.156Z,8.32
2022-11-21T11:36:13.042Z,8.34
2022-11-21T11:38:44.519Z,8.36
2022-11-21T11:41:22.832Z,8.34
2022-11-21T11:44:20.023Z,8.32
2022-11-21T11:47:15.810Z,8.35
2022-11-21T11:50:08.660Z,8.41
2022-11-21T11:52:40.619Z,8.42
2022-11-21T11:55:17.819Z,8.44
2022-11-21T11:57:47.010Z,8.45
2022-11-21T12:00:28.187Z,8.44
2022-11-21T12:03:01.608Z,8.42
2022-11-21T12:05:31.485Z,8.42
2022-11-21T12:08:40.027Z,8.43
2022-11-21T12:11:23.685Z,8.48
2022-11-21T12:13:56.693Z,8.48
2022-11-21T12:16:27.881Z,8.48
2022-11-21T12:19:01.076Z,8.51
2022-11-21T12:21:29.516Z,8.57
2022-11-21T12:23:58.862Z,8.58
2022-11-21T12:26:35.872Z,8.63
2022-11-21T12:29:15.033Z,8.70
2022-11-21T12:32:06.756Z,8.77
2022-11-21T12:34:53.628Z,8.85
2022-11-21T12:37:32.446Z,8.95
2022-11-21T12:40:03.704Z,9.02
2022-11-21T12:42:51.407Z,9.08
2022-11-21T12:45:37.818Z,9.10
2022-11-21T12:48:54.524Z,9.09
2022-11-21T12:52:03.381Z,9.14
2022-11-21T12:54:57.400Z,9.12
2022-11-21T12:57:37.559Z,9.08
2022-11-21T13:00:16.013Z,9.03
2022-11-21T13:03:21.190Z,8.96
2022-11-21T13:05:54.512Z,8.92
2022-11-21T13:08:25.445Z,8.86
2022-11-21T13:11:20.601Z,8.82
2022-11-21T13:13:53.108Z,8.82
2022-11-21T13:16:36.685Z,8.81
2022-11-21T13:19:18.523Z,8.83
2022-11-21T13:21:48.853Z,8.85
2022-11-21T13:24:49.259Z,8.88
2022-11-21T13:27:30.044Z,8.86
2022-11-21T13:30:24.738Z,8.88
2022-11-21T13:32:54.466Z,8.90
2022-11-21T13:36:05.019Z,8.93
2022-11-21T13:39:03.565Z,8.96
2022-11-21T13:42:21.300Z,8.99
2022-11-21T13:44:49.469Z,9.02
2022-11-21T13:47:56.895Z,9.05
2022-11-21T13:50:57.550Z,9.05
2022-11-21T13:54:05.415Z,9.06
2022-11-21T13:56:42.482Z,9.08
2022-11-21T13:59:31.556Z,9.08
2022-11-21T14:02:29.854Z,9.08
2022-11-21T14:05:27.730Z,9.10
2022-11-21T14:07:55.672Z,9.09
2022-11-21T14:10:34.213Z,9.10
2022-11-21T14:13:04.418Z,9.10
2022-11-21T14:15:42.337Z,9.08
2022-11-21T14:18:21.448Z,9.06
2022-11-21T14:20:53.769Z,9.03
2022-11-21T14:23:25.812Z,9.00
2022-11-21T14:25:58.371Z,8.96
2022-11-21T14:28:26.589Z,8.93
2022-11-21T14:30:58.723Z,8.90
2022-11-21T14:33:33.107Z,8.88
2022-11-21T14:36:04.877Z,8.87
2022-11-21T14:38:36.244Z,8.79
2022-11-21T14:41:32.741Z,8.77
2022-11-21T14:44:19.598Z,8.73
2022-11-21T14:46:48.185Z,8.69
2022-11-21T14:49:24.726Z,8.66
2022-11-21T14:51:58.899Z,8.64
2022-11-21T14:54:29.309Z,8.61
2022-11-21T14:57:01.280Z,8.57
2022-11-21T14:59:32.628Z,8.54
2022-11-21T15:02:08.210Z,8.52
2022-11-21T15:04:37.144Z,8.49
2022-11-21T15:07:05.861Z,8.45
2022-11-21T15:12:30.553Z,8.36
2022-11-21T15:15:01.644Z,8.31
2022-11-21T15:17:30.125Z,8.26
2022-11-21T15:20:18.828Z,8.22
2022-11-21T15:22:48.738Z,8.17
2022-11-21T15:25:19.521Z,8.13
2022-11-21T15:27:50.209Z,8.12
2022-11-21T15:30:24.965Z,8.11
2022-11-21T15:33:04.150Z,8.10
2022-11-21T15:35:55.069Z,8.10
2022-11-21T15:38:28.582Z,8.06
2022-11-21T15:41:11.591Z,8.05
2022-11-21T15:43:45.879Z,8.01
2022-11-21T15:46:16.479Z,8.01
2022-11-21T15:48:47.100Z,8.00
2022-11-21T15:51:15.363Z,7.98
2022-11-21T15:53:43.265Z,7.96
2022-11-21T15:56:16.990Z,7.94
2022-11-21T15:58:50.980Z,7.91
2022-11-21T16:01:20.719Z,7.91
2022-11-21T16:03:50.661Z,7.90
2022-11-21T16:06:18.859Z,7.87
2022-11-21T16:08:47.098Z,7.86
2022-11-21T16:11:21.155Z,7.87
2022-11-21T16:13:54.760Z,7.88
2022-11-21T16:16:24.176Z,7.90
2022-11-21T16:18:51.969Z,7.92
2022-11-21T16:21:20.101Z,7.93
2022-11-21T16:23:48.081Z,7.95
2022-11-21T16:26:16.729Z,7.95
2022-11-21T16:28:44.532Z,7.98
2022-11-21T16:31:24.546Z,8.00
2022-11-21T16:33:52.548Z,7.99
2022-11-21T16:36:21.301Z,7.99
2022-11-21T16:38:49.242Z,7.99
2022-11-21T16:41:18.676Z,7.99
2022-11-21T16:43:49.616Z,7.99
2022-11-21T16:46:20.105Z,8.02
2022-11-21T16:48:48.124Z,7.98
2022-11-21T16:51:18.026Z,7.95
2022-11-21T16:53:48.183Z,7.94
2022-11-21T16:56:17.357Z,7.96
2022-11-21T16:58:45.159Z,8.00
2022-11-21T17:01:16.295Z,7.99
2022-11-21T17:03:47.360Z,7.99
2022-11-21T17:06:17.938Z,8.00
2022-11-21T17:08:47.060Z,7.99
2022-11-21T17:11:16.347Z,7.98
2022-11-21T17:13:44.751Z,7.99
2022-11-21T17:16:13.262Z,8.02
2022-11-21T17:18:41.076Z,8.01
2022-11-21T17:21:13.227Z,8.02
2022-11-21T17:23:42.696Z,8.00
2022-11-21T17:26:12.494Z,7.97
2022-11-21T17:28:45.278Z,7.96
2022-11-21T17:31:15.208Z,7.95
2022-11-21T17:33:44.094Z,7.96
2022-11-21T17:36:15.672Z,7.96
2022-11-21T17:38:44.081Z,7.98
2022-11-21T17:41:13.356Z,8.00
2022-11-21T17:43:41.486Z,8.01
2022-11-21T17:46:13.170Z,8.03
2022-11-21T17:48:41.353Z,8.03
2022-11-21T17:51:17.040Z,8.04
2022-11-21T17:53:48.103Z,8.05
2022-11-21T17:56:18.375Z,8.07
2022-11-21T17:58:47.145Z,8.05
2022-11-21T18:01:19.379Z,8.05
2022-11-21T18:03:47.605Z,8.04
2022-11-21T18:06:17.399Z,8.03
2022-11-21T18:08:48.490Z,8.02
2022-11-21T18:11:19.294Z,8.01
2022-11-21T18:13:48.109Z,8.01
2022-11-21T18:16:17.882Z,7.99
2022-11-21T18:18:45.855Z,8.00
2022-11-21T18:21:15.274Z,7.98
2022-11-21T18:23:44.609Z,7.97
2022-11-21T18:26:17.716Z,7.98
2022-11-21T18:28:45.464Z,7.97
2022-11-21T18:31:14.990Z,7.95
2022-11-21T18:33:49.098Z,7.96
2022-11-21T18:36:19.737Z,7.99
2022-11-21T18:38:51.210Z,7.99
2022-11-21T18:41:25.679Z,7.97
2022-11-21T18:43:54.425Z,7.99
2022-11-21T18:46:24.152Z,7.98
2022-11-21T18:49:04.276Z,7.99
2022-11-21T18:51:33.364Z,7.97
2022-11-21T18:54:05.116Z,7.95
2022-11-21T18:56:34.581Z,7.95
2022-11-21T18:59:03.328Z,7.92
2022-11-21T19:01:32.773Z,7.94
2022-11-21T19:04:00.755Z,7.94
2022-11-21T19:06:29.422Z,7.95
2022-11-21T19:08:58.607Z,7.96
2022-11-21T19:11:28.507Z,7.96
2022-11-21T19:13:59.273Z,7.98
2022-11-21T19:16:28.764Z,7.98
2022-11-21T19:21:45.608Z,8.00
2022-11-21T19:24:14.959Z,8.00
2022-11-21T19:26:43.184Z,8.02
2022-11-21T19:29:12.810Z,8.00
2022-11-21T19:31:45.070Z,8.00
2022-11-21T19:34:13.996Z,8.05
2022-11-21T19:36:41.771Z,8.06
2022-11-21T19:39:10.013Z,8.09
2022-11-21T19:41:38.285Z,8.05
2022-11-21T19:44:06.184Z,8.06
2022-11-21T19:46:36.785Z,8.09
2022-11-21T19:49:05.703Z,8.09
2022-11-21T19:51:35.672Z,8.10
2022-11-21T19:54:03.720Z,8.11
2022-11-21T19:56:31.483Z,8.11
2022-11-21T19:58:59.500Z,8.10
2022-11-21T20:01:29.080Z,8.13
2022-11-21T20:04:00.340Z,8.15
2022-11-21T20:06:30.678Z,8.16
2022-11-21T20:08:59.822Z,8.16
2022-11-21T20:11:28.650Z,8.14
2022-11-21T20:13:57.148Z,8.17
2022-11-21T20:16:27.045Z,8.17
2022-11-21T20:18:57.094Z,8.17
2022-11-21T20:21:26.562Z,8.19
2022-11-21T20:23:54.479Z,8.19
2022-11-21T20:26:23.288Z,8.19
2022-11-21T20:28:51.591Z,8.21
2022-11-21T20:31:21.077Z,8.23
2022-11-21T20:33:50.190Z,8.23
2022-11-21T20:36:20.978Z,8.22
2022-11-21T20:38:53.798Z,8.24
2022-11-21T20:41:22.435Z,8.25
2022-11-21T20:46:42.342Z,8.22
2022-11-21T20:49:10.350Z,8.22
2022-11-21T20:54:27.883Z,8.25
2022-11-21T20:56:55.875Z,8.23
2022-11-21T20:59:23.601Z,8.24
2022-11-21T21:01:51.379Z,8.26
2022-11-21T21:04:19.102Z,8.26
2022-11-21T21:06:46.847Z,8.27
2022-11-21T21:09:14.586Z,8.27
2022-11-21T21:11:52.506Z,8.26
2022-11-21T21:14:21.110Z,8.29
2022-11-21T21:16:48.998Z,8.29
2022-11-21T21:19:17.020Z,8.30
2022-11-21T21:21:44.876Z,8.28
2022-11-21T21:24:13.687Z,8.25
2022-11-21T21:26:44.886Z,8.27
2022-11-21T21:29:13.880Z,8.26
2022-11-21T21:31:47.073Z,8.27
2022-11-21T21:34:17.770Z,8.30
2022-11-21T21:36:45.885Z,8.34
2022-11-21T21:39:13.852Z,8.31
2022-11-21T21:41:44.731Z,8.35
2022-11-21T21:44:14.283Z,8.33
2022-11-21T21:46:42.177Z,8.35
2022-11-21T21:49:09.903Z,8.37
2022-11-21T21:51:38.085Z,8.39
2022-11-21T21:54:06.324Z,8.40
2022-11-21T21:56:34.698Z,8.39
2022-11-21T21:59:02.476Z,8.41
2022-11-21T22:01:33.345Z,8.42
2022-11-21T22:04:03.408Z,8.39
2022-11-21T22:06:35.776Z,8.38
2022-11-21T22:09:04.843Z,8.37
2022-11-21T22:11:36.561Z,8.37
2022-11-21T22:14:07.195Z,8.37
2022-11-21T22:16:36.297Z,8.33
2022-11-21T22:19:03.985Z,8.31
2022-11-21T22:21:33.312Z,8.29
2022-11-21T22:24:24.803Z,8.30
2022-11-21T22:26:50.310Z,8.26
2022-11-21T22:29:20.687Z,8.29
2022-11-21T22:31:50.785Z,8.32
2022-11-21T22:34:18.549Z,8.32
2022-11-21T22:36:46.725Z,8.34
2022-11-21T22:39:15.299Z,8.34
2022-11-21T22:41:42.957Z,8.35
2022-11-21T22:44:10.752Z,8.34
2022-11-21T22:46:38.603Z,8.32
2022-11-21T22:49:07.679Z,8.31
2022-11-21T22:51:35.341Z,8.26
2022-11-21T22:54:03.052Z,8.23
2022-11-21T22:56:30.722Z,8.23
2022-11-21T22:58:58.393Z,8.19
2022-11-21T23:01:29.849Z,8.19
2022-11-21T23:03:57.592Z,8.14
2022-11-21T23:06:27.729Z,8.11
2022-11-21T23:08:56.847Z,8.10
2022-11-21T23:11:27.670Z,8.06
2022-11-21T23:13:56.953Z,8.05
2022-11-21T23:16:25.069Z,8.02
2022-11-21T23:18:53.635Z,7.99
2022-11-21T23:21:21.690Z,8.02
2022-11-21T23:23:50.844Z,7.98
2022-11-21T23:26:18.824Z,7.97
2022-11-21T23:28:46.560Z,7.93
2022-11-21T23:31:14.425Z,7.94
2022-11-21T23:33:42.191Z,7.94
2022-11-21T23:36:09.939Z,7.94
2022-11-21T23:38:37.649Z,7.95
2022-11-21T23:41:06.770Z,7.94
2022-11-21T23:43:34.510Z,7.92
2022-11-21T23:46:02.239Z,7.94
2022-11-21T23:48:29.981Z,7.98
2022-11-21T23:50:57.732Z,7.99
2022-11-21T23:53:25.413Z,8.02
2022-11-21T23:55:53.155Z,8.03
2022-11-21T23:58:33.398Z,7.99
